Terminal Aerodrome Forecast
Issued by NWS

Home | Current Version | Previous Version | Text Only | Print | Product List | Glossary On
Versions: 1 2 3 4 5 6 7 8 9 10 11 12 13 14 15 16 17 18 19
654
FTUS43 KDLH 161252 AAA
TAFBRD
TAF AMD
KBRD 161252Z 1613/1712 33008KT P6SM FEW015
     FM161800 25007KT P6SM BKN100
     FM170000 23008KT P6SM BKN100=

USA.gov is the U.S. government's official web portal to all federal, state and local government web resources and services.